Latest Weather Observations for Willis Island

IDQ60801

Issued at 7:02 am EST Monday 30 May 2016 (issued every 30 minutes, with the page automatically refreshed every 10 minutes)

About weather observations | Map of weather stations | Latest weather observations for QLD | Other Formats
Station Details ID: 200283 Name: WILLIS ISLAND Lat: -16.29 Lon: 149.97 Height: 9.29 m
Data from the previous 72 hours. | See also: Recent months at Willis Island
Date/Time
EST
Temp
°C
App
Temp
°C
Dew
Point
Rel
Hum
%
Delta-T
°C
Wind Press
QNH
hPa
Press
MSL
hPa
Rain
since 9 am
mm
Dir
 
Spd
km/h
Gust
km/h
Spd
kts
Gust
kts
30/07:00am 26.7 25.0 21.4 72 3.5 E 32 37 17 20 1016.8 1016.7 0.0
30/06:30am 26.3 25.3 22.0 77 2.9 E 30 35 16 19 1016.7 1016.6 0.0
30/06:00am 26.5 25.5 21.9 76 3.1 E 30 35 16 19 1016.6 1016.5 0.0
30/05:30am 26.2 24.7 21.7 76 3.0 E 32 35 17 19 1016.3 1016.2 0.0
30/05:00am 26.3 24.7 21.5 75 3.2 E 32 37 17 20 1015.7 1015.6 0.0
30/04:30am 26.3 25.5 22.4 79 2.6 E 30 35 16 19 1015.5 1015.4 0.0
30/04:00am 26.3 25.0 22.1 77 2.8 E 32 39 17 21 1015.5 1015.4 0.0
30/03:30am 26.5 25.4 22.5 78 2.7 E 32 35 17 19 1015.7 1015.6 0.0
30/03:00am 26.3 24.9 22.0 77 2.9 E 32 35 17 19 1015.7 1015.6 0.0
30/02:30am 26.5 25.4 22.5 78 2.7 E 32 35 17 19 1015.9 1015.8 0.0
30/02:00am 26.4 25.6 22.4 78 2.7 E 30 33 16 18 1016.0 1015.9 0.0
30/01:30am 26.4 25.5 22.2 78 2.8 E 30 32 16 17 1016.2 1016.1 0.0
30/01:00am 26.5 26.2 22.6 79 2.6 E 28 33 15 18 1016.4 1016.3 0.0
30/12:30am 26.5 25.7 22.3 78 2.8 ESE 30 37 16 20 1016.6 1016.5 0.0
30/12:00am 26.4 25.9 22.2 78 2.8 ESE 28 32 15 17 1016.6 1016.5 0.0
 
Date/Time
EST
Temp
°C
App
Temp
°C
Dew
Point
Rel
Hum
%
Delta-T
°C
Wind Press
QNH
hPa
Press
MSL
hPa
Rain
since 9 am
mm
Dir
 
Spd
km/h
Gust
km/h
Spd
kts
Gust
kts
29/11:30pm 26.4 25.8 21.9 76 3.0 ESE 28 33 15 18 1016.5 1016.4 0.0
29/11:00pm 26.4 26.2 22.1 77 2.9 E 26 32 14 17 1016.7 1016.6 0.0
29/10:30pm 26.3 26.0 21.8 76 3.0 ESE 26 32 14 17 1016.6 1016.5 0.0
29/10:00pm 26.4 26.4 22.4 78 2.7 ESE 26 30 14 16 1016.7 1016.6 0.0
29/09:30pm 26.4 25.9 22.1 77 2.9 ESE 28 30 15 16 1016.8 1016.7 0.0
29/09:00pm 26.4 26.7 22.2 78 2.8 ESE 24 28 13 15 1016.7 1016.6 0.0
29/08:30pm 26.4 26.8 22.4 78 2.7 ESE 24 28 13 15 1016.6 1016.5 0.0
29/08:00pm 26.2 26.5 22.3 79 2.6 ESE 24 28 13 15 1016.3 1016.2 0.0
29/07:30pm 26.3 26.3 21.6 75 3.1 ESE 24 30 13 16 1016.1 1016.0 0.0
29/07:00pm 26.2 26.1 21.4 75 3.2 ESE 24 28 13 15 1015.7 1015.6 0.0
29/06:30pm 26.1 26.1 21.7 77 2.9 SE 24 28 13 15 1015.6 1015.5 0.0
29/06:00pm 26.1 26.2 21.9 77 2.8 SE 24 26 13 14 1015.5 1015.4 0.0
29/05:30pm 26.2 25.7 21.5 75 3.1 SE 26 28 14 15 1015.4 1015.3 0.0
29/05:00pm 26.5 26.4 21.4 73 3.4 SE 24 30 13 16 1015.2 1015.1 0.0
29/04:30pm 27.0 27.4 21.8 73 3.5 ESE 22 28 12 15 1014.9 1014.8 0.0
29/04:00pm 27.2 27.4 21.3 70 3.9 SE 22 26 12 14 1014.7 1014.6 0.0
29/03:30pm 27.4 28.0 21.4 70 4.0 ESE 20 24 11 13 1014.5 1014.4 0.0
29/03:00pm 27.8 28.5 21.5 68 4.2 ESE 20 26 11 14 1014.7 1014.6 0.0
29/02:30pm 28.3 29.3 22.2 69 4.1 ESE 20 24 11 13 1014.6 1014.5 0.0
29/02:00pm 28.1 28.9 21.7 68 4.3 ESE 20 24 11 13 1014.6 1014.5 0.0
29/01:30pm 28.2 29.0 21.8 68 4.3 ESE 20 26 11 14 1014.6 1014.5 0.0
29/01:00pm 28.5 29.4 22.0 68 4.4 E 20 24 11 13 1014.7 1014.6 0.0
29/12:30pm 28.1 28.9 21.7 68 4.3 E 20 24 11 13 1014.9 1014.8 0.0
29/12:00pm 27.7 27.5 21.2 67 4.3 E 24 28 13 15 1015.4 1015.3 0.0
29/11:30am 28.3 29.2 21.9 68 4.3 E 20 26 11 14 1015.7 1015.6 0.0
29/11:00am 28.1 28.5 21.8 68 4.2 E 22 26 12 14 1015.9 1015.8 0.0
29/10:30am 28.0 28.5 21.9 69 4.1 E 22 28 12 15 1016.0 1015.9 0.0
29/10:00am 28.1 28.2 21.8 68 4.2 E 24 28 13 15 1016.2 1016.1 0.0
29/09:30am 27.5 26.8 21.0 67 4.3 E 26 30 14 16 1016.2 1016.1 0.0
29/09:00am 27.2 27.0 21.2 69 4.0 E 24 28 13 15 1016.2 1016.1 0.0
29/08:30am 27.0 26.7 21.1 70 3.9 E 24 28 13 15 1016.2 1016.1 0.0
29/08:00am 26.8 26.4 20.9 70 3.9 E 24 30 13 16 1015.8 1015.7 0.0
29/07:30am 26.4 26.6 21.4 74 3.3 E 22 28 12 15 1015.5 1015.4 0.0
29/07:00am 26.0 26.3 20.7 72 3.5 ESE 20 26 11 14 1015.3 1015.2 0.0
29/06:30am 25.6 25.9 20.7 74 3.2 E 20 26 11 14 1014.9 1014.8 0.0
29/06:00am 25.6 26.0 20.9 75 3.1 E 20 24 11 13 1014.6 1014.5 0.0
29/05:30am 25.5 25.8 20.8 75 3.1 E 20 24 11 13 1014.3 1014.2 0.0
29/05:00am 25.5 26.1 21.1 76 2.9 E 19 22 10 12 1014.2 1014.1 0.0
29/04:30am 25.5 25.6 20.4 73 3.3 E 20 22 11 12 1014.1 1014.0 0.0
29/04:00am 25.7 26.3 21.0 75 3.1 E 19 24 10 13 1014.1 1014.0 0.0
29/03:30am 25.6 26.1 21.2 76 2.9 E 20 22 11 12 1014.1 1014.0 0.0
29/03:00am 25.5 26.0 20.9 75 3.0 E 19 20 10 11 1014.0 1013.9 0.0
29/02:30am 25.7 26.5 21.3 76 2.9 E 19 20 10 11 1014.0 1013.9 0.0
29/02:00am 25.7 26.6 21.5 77 2.8 ENE 19 20 10 11 1014.0 1013.9 0.0
29/01:30am 25.7 26.5 21.3 76 2.9 E 19 22 10 12 1014.3 1014.2 0.0
29/01:00am 25.6 26.5 21.5 78 2.7 E 19 22 10 12 1014.5 1014.4 0.0
29/12:30am 25.7 26.9 21.5 77 2.8 E 17 20 9 11 1014.8 1014.7 0.0
29/12:00am 25.6 26.9 21.7 79 2.6 E 17 20 9 11 1014.9 1014.8 0.0
 
Date/Time
EST
Temp
°C
App
Temp
°C
Dew
Point
Rel
Hum
%
Delta-T
°C
Wind Press
QNH
hPa
Press
MSL
hPa
Rain
since 9 am
mm
Dir
 
Spd
km/h
Gust
km/h
Spd
kts
Gust
kts
28/11:30pm 25.7 27.6 22.0 80 2.5 E 15 19 8 10 1015.2 1015.1 0.0
28/11:00pm 25.7 27.3 21.5 77 2.8 E 15 19 8 10 1015.3 1015.2 0.0
28/10:30pm 25.7 27.2 21.3 76 2.9 ESE 15 19 8 10 1015.4 1015.3 0.0
28/10:00pm 25.5 27.2 21.6 79 2.6 ESE 15 19 8 10 1015.4 1015.3 0.0
28/09:30pm 25.6 30.2 21.8 79 2.5 CALM 0 6 0 3 1015.6 1015.5 0.0
28/09:00pm 25.6 30.1 21.5 78 2.7 CALM 0 6 0 3 1015.3 1015.2 0.0
28/08:30pm 25.5 29.9 21.4 78 2.7 CALM 0 6 0 3 1015.2 1015.1 0.0
28/08:00pm 25.5 30.0 21.6 79 2.6 CALM 0 2 0 1 1014.9 1014.8 0.0
28/07:30pm 25.5 30.0 21.6 79 2.6 CALM 0 6 0 3 1014.8 1014.7 0.0
28/07:00pm 25.8 30.4 21.7 78 2.7 CALM 0 6 0 3 1014.4 1014.3 0.0
28/06:30pm 25.5 28.8 21.4 78 2.7 SSE 6 7 3 4 1014.2 1014.1 0.0
28/06:00pm 26.0 29.3 21.8 77 2.8 SSW 7 9 4 5 1014.1 1014.0 0.0
28/05:30pm 26.4 29.8 21.6 75 3.2 SSW 6 9 3 5 1014.1 1014.0 0.0
28/05:00pm 26.8 29.6 21.5 72 3.5 SSW 9 13 5 7 1013.9 1013.8 0.0
28/04:30pm 27.7 30.9 21.6 69 4.1 SW 7 9 4 5 1013.7 1013.6 0.0
28/04:00pm 27.7 30.9 21.6 69 4.1 SSW 7 9 4 5 1013.4 1013.3 0.0
28/03:30pm 28.5 31.8 21.8 67 4.5 SW 7 9 4 5 1013.3 1013.2 0.0
28/03:00pm 28.6 31.9 21.9 67 4.5 NW 7 9 4 5 1013.2 1013.1 0.0
28/02:30pm 28.9 31.8 21.8 65 4.8 NNW 9 13 5 7 1013.2 1013.1 0.0
28/02:00pm 28.8 31.8 22.6 69 4.2 N 11 15 6 8 1013.3 1013.2 0.0
28/01:30pm 28.2 31.0 22.3 70 4.0 N 11 15 6 8 1013.4 1013.3 0.0
28/01:00pm 28.5 31.5 22.6 70 4.0 N 11 15 6 8 1013.5 1013.4 0.0
28/12:30pm 28.3 30.9 22.7 71 3.8 NNE 13 17 7 9 1014.0 1013.9 0.0
28/12:00pm 27.9 30.4 22.4 72 3.7 N 13 17 7 9 1014.3 1014.2 0.0
28/11:30am 28.2 30.1 22.8 72 3.7 NNE 17 20 9 11 1014.5 1014.4 0.0
28/11:00am 28.6 31.0 23.0 71 3.8 NNE 15 17 8 9 1015.0 1014.9 0.0
28/10:30am 28.7 31.2 23.1 71 3.8 NNE 15 17 8 9 1015.4 1015.3 0.0
28/10:00am 27.8 30.0 22.6 73 3.5 NNE 15 17 8 9 1015.6 1015.5 0.0
28/09:30am 27.7 30.0 22.8 74 3.3 NNE 15 19 8 10 1015.9 1015.8 0.0
28/09:00am 27.2 28.8 22.8 77 3.0 NNE 19 20 10 11 1016.0 1015.9 0.0
28/08:30am 27.2 28.5 22.3 74 3.3 NNE 19 20 10 11 1015.9 1015.8 0.0
28/08:00am 26.8 28.4 22.2 76 3.1 NNE 17 20 9 11 1015.6 1015.5 0.0
28/07:30am 26.5 27.9 22.5 78 2.7 NNE 19 20 10 11 1015.2 1015.1 0.0
28/07:00am 26.2 27.5 22.6 80 2.4 NNE 20 24 11 13 1014.6 1014.5 0.0
28/06:30am 25.6 26.7 22.0 80 2.4 NE 19 22 10 12 1014.2 1014.1 0.0
28/06:00am 25.5 26.8 22.4 83 2.1 NE 19 20 10 11 1014.1 1014.0 0.0
28/05:30am 25.5 26.8 22.4 83 2.1 NE 19 20 10 11 1013.8 1013.7 0.0
28/05:00am 25.6 27.2 22.2 81 2.3 NE 17 20 9 11 1013.5 1013.4 0.0
28/04:30am 25.4 27.7 22.1 82 2.2 NE 13 15 7 8 1013.4 1013.3 0.0
28/04:00am 25.4 27.6 21.8 80 2.4 NE 13 15 7 8 1013.4 1013.3 0.0
28/03:30am 25.4 28.0 22.0 81 2.3 NE 11 15 6 8 1013.1 1013.0 0.0
28/03:00am 25.4 27.6 21.8 80 2.4 NNE 13 15 7 8 1012.9 1012.8 0.0
28/02:30am 25.3 27.8 21.8 81 2.3 NE 11 13 6 7 1013.0 1012.9 0.0
28/02:00am 25.5 28.2 22.1 81 2.3 NE 11 13 6 7 1013.2 1013.1 0.0
28/01:30am 25.3 28.5 22.3 83 2.0 NE 9 11 5 6 1013.5 1013.4 0.0
28/01:00am 25.2 28.7 22.1 83 2.1 NE 7 9 4 5 1013.7 1013.6 0.0
28/12:30am 25.5 28.1 21.9 80 2.4 NNE 11 13 6 7 1013.9 1013.8 0.0
28/12:00am 25.4 28.6 22.3 83 2.1 N 9 11 5 6 1013.9 1013.8 0.0
 
Date/Time
EST
Temp
°C
App
Temp
°C
Dew
Point
Rel
Hum
%
Delta-T
°C
Wind Press
QNH
hPa
Press
MSL
hPa
Rain
since 9 am
mm
Dir
 
Spd
km/h
Gust
km/h
Spd
kts
Gust
kts
27/11:30pm 25.4 29.3 21.8 80 2.4 NE 4 9 2 5 1014.1 1014.0 0.0
27/11:00pm 25.2 28.6 21.6 80 2.4 NE 6 9 3 5 1014.0 1013.9 0.0
27/10:30pm 25.1 28.4 21.5 80 2.4 NE 6 9 3 5 1014.0 1013.9 0.0
27/10:00pm 25.2 29.6 21.4 79 2.5 CALM 0 0 0 0 1014.0 1013.9 0.0
27/09:30pm 25.6 30.0 21.4 77 2.8 CALM 0 0 0 0 1014.1 1014.0 0.0
27/09:00pm 25.5 30.0 21.6 79 2.6 CALM 0 0 0 0 1013.9 1013.8 0.0
27/08:30pm 25.6 30.0 21.4 77 2.8 CALM 0 0 0 0 1013.5 1013.4 0.0
27/08:00pm 25.5 28.7 21.6 79 2.6 SSE 7 9 4 5 1013.4 1013.3 0.0
27/07:30pm 25.6 28.9 21.5 78 2.7 SE 6 7 3 4 1013.3 1013.2 0.0
27/07:00pm 25.7 30.2 21.6 78 2.7 CALM 0 6 0 3 1013.0 1012.9 0.0
27/06:30pm 25.7 30.3 21.8 79 2.6 CALM 0 0 0 0 1012.8 1012.7 0.0
27/06:00pm 26.0 30.5 21.6 76 2.9 CALM 0 0 0 0 1012.7 1012.6 0.0
27/05:30pm 26.6 31.3 22.0 76 3.1 CALM 0 6 0 3 1012.6 1012.5 0.0
27/05:00pm 27.1 30.5 21.6 72 3.7 N 6 6 3 3 1012.4 1012.3 0.0
27/04:30pm 27.6 31.0 21.6 70 4.0 N 6 7 3 4 1012.2 1012.1 0.0
27/04:00pm 27.6 29.9 19.9 63 5.0 N 7 9 4 5 1012.1 1012.0 0.0
27/03:30pm 27.9 31.2 21.9 70 4.0 N 7 9 4 5 1012.1 1012.0 0.0
27/03:00pm 28.4 31.4 21.9 68 4.4 N 9 11 5 6 1012.1 1012.0 0.0
27/02:30pm 28.3 31.1 21.6 67 4.5 NNE 9 11 5 6 1012.3 1012.2 0.0
27/02:00pm 28.2 31.6 22.0 69 4.2 NNE 7 11 4 6 1012.5 1012.4 0.0
27/01:30pm 28.3 31.4 22.1 69 4.2 NNE 9 11 5 6 1012.7 1012.6 0.0
27/01:00pm 28.5 31.4 21.8 67 4.5 NNE 9 9 5 5 1013.0 1012.9 0.0
27/12:30pm 28.5 32.1 22.3 69 4.2 NE 7 9 4 5 1013.4 1013.3 0.0
27/12:00pm 28.7 32.4 22.5 69 4.2 NE 7 11 4 6 1013.8 1013.7 0.0
27/11:30am 28.5 32.0 22.1 68 4.3 NNE 7 9 4 5 1014.3 1014.2 0.0
27/11:00am 28.1 31.4 21.8 68 4.2 NE 7 9 4 5 1014.6 1014.5 0.0
27/10:30am 28.6 32.9 22.6 70 4.1 ENE 4 9 2 5 1014.8 1014.7 0.0
27/10:00am 28.0 31.6 22.1 70 4.0 E 6 7 3 4 1015.2 1015.1 0.0
27/09:30am 28.4 32.1 22.3 69 4.1 ESE 6 7 3 4 1015.4 1015.3 0.0
27/09:00am 28.2 31.7 21.9 68 4.2 E 6 7 3 4 1015.6 1015.5 0.2
27/08:30am 27.8 31.5 22.2 71 3.8 ENE 6 7 3 4 1015.5 1015.4 -
27/08:00am 27.5 31.0 22.1 72 3.6 NE 7 7 4 4 1015.1 1015.0 -
27/07:30am 27.0 30.5 22.2 75 3.2 ENE 7 9 4 5 1014.8 1014.7 -

Other Formats:

Comma delimited format used in spreadsheet applications
http://www.bom.gov.au/fwo/IDQ60801/IDQ60801.94299.axf

JavaScript Object Notation format (JSON) in row-major order
http://www.bom.gov.au/fwo/IDQ60801/IDQ60801.94299.json